Tiempo atmosférico en la estación meteorológica de Pedrosa Del Príncipe, Burgos (771 m.)



Fecha
DESCASC
Temp. máxima en grados centígrados (hora)
DESCASC
Temp. mínima en grados centígrados (hora)
DESCASC
Temp. media en grados centígrados
DESCASC
Racha de viento máxima en m/sg (hora)
DESCASC
Velocidad máxima media en intervalos de 10 minutos(hora)
DESCASC
Precipitaciones diarias en mm
DESCASC
Precipitaciones de 00:00 a 06:00 en mm
DESCASC
Precipitaciones de 06:00 a 12:00 en mm
DESCASC
Precipitaciones de 12:00 a 18:00 en mm
DESCASC
Precipitaciones de 18:00 a 24:00 en mm
DESCASC
15-07-2018 27.8 (17:10) 13.2 (07:20) 20.5 11.11 (21:00) 5.28 (18:20) 0 0 0 0 0
14-07-2018 31 (18:10) 13 (07:20) 22 10 (03:10) 5 (03:10) 0.2 0.2 0 0 0
13-07-2018 29.8 (15:30) 13.5 (07:00) 21.6 12.22 (16:50) 6.94 (22:00) 13.2 0 0 12.8 0.4
12-07-2018 26.5 (17:40) 11.7 (00:00) 19.1 10 (21:00) 4.72 (20:10) 0 0 0 0 0
11-07-2018 23.9 (18:30) 11.8 (00:00) 17.8 13.33 (12:10) 7.5 (12:00) 2.6 0 0.8 1.8 0
10-07-2018 28.8 (17:20) 11.5 (00:00) 20.1 8.33 (12:00) 4.72 (10:40) 0 0 0 0 0
09-07-2018 28.2 (17:10) 13.2 (00:00) 20.7 10.83 (11:50) 5.56 (12:10) 0 0 0 0 0
08-07-2018 30.5 (16:00) 15.7 (07:20) 23.1 11.67 (20:10) 7.5 (19:30) 12.4 0 0 0 12.4
07-07-2018 30.2 (16:50) 13.7 (00:00) 22 15.28 (19:30) 8.06 (19:40) 5.6 1.6 0.2 0 3.8
06-07-2018 27.9 (16:30) 11.4 (00:00) 19.6 8.61 (09:50) 4.72 (09:30) 0 0 0 0 0
05-07-2018 26.6 (17:40) 11.4 (07:20) 19 9.17 (21:00) 5.83 (21:00) 0 0 0 0 0
04-07-2018 25.7 (17:20) 14 (00:30) 19.9 12.78 (19:40) 7.5 (14:30) 0 0 0 0 0
03-07-2018 26.7 (18:40) 10.5 (06:20) 18.6 7.78 (18:50) 4.72 (18:50) 0 0 0 0 0
02-07-2018 23.9 (19:40) 10.3 (04:30) 17.1 9.72 (14:50) 5.28 (14:50) 0 0 0 0 0
01-07-2018 26.7 (17:20) 12.6 (00:00) 19.7 11.67 (20:10) 6.39 (20:10) 2.6 0 0 0 2.6
30-06-2018 26 (12:30) 15.3 (02:30) 20.7 11.39 (14:40) 6.67 (14:40) 1 0 0.2 0.8 0
29-06-2018 30.8 (18:40) 14 (00:00) 22.4 11.39 (23:20) 6.11 (23:20) 3.8 0 0 0 3.8
28-06-2018 27.8 (16:30) 15.8 (00:00) 21.8 10.56 (19:10) 5.83 (08:40) 0 0 0 0 0
27-06-2018 30.4 (16:10) 16.2 (00:00) 23.3 11.67 (18:50) 6.67 (18:50) 0.2 0.2 0 0 0
26-06-2018 34.1 (16:40) 15.2 (00:00) 24.6 13.61 (20:20) 7.5 (20:20) 1.6 0 0 0 1.6
25-06-2018 33 (17:10) 12.3 (00:00) 22.7 7.22 (11:00) 3.89 (10:50) 0 0 0 0 0
24-06-2018 33.3 (16:50) 9.9 (00:00) 21.6 7.22 (19:50) 4.44 (19:50) 0 0 0 0 0
23-06-2018 29.7 (17:40) 10.1 (00:00) 19.9 8.06 (12:00) 4.44 (12:00) 0 0 0 0 0
22-06-2018 27.8 (16:50) 15.7 (23:59) 21.7 10.56 (11:30) 6.11 (10:40) 0 0 0 0 0
21-06-2018 30.1 (15:10) 17.2 (00:00) 23.7 11.94 (22:30) 6.67 (20:50) 0.4 0.4 0 0 0
20-06-2018 31.8 (17:20) 11.1 (00:00) 21.4 6.67 (21:30) 3.61 (21:00) 0 0 0 0 0
19-06-2018 28 (19:20) 12.7 (00:00) 20.3 10.28 (03:50) 5.83 (04:40) 0 0 0 0 0
18-06-2018 24.8 (16:50) 7.2 (00:00) 16 11.11 (13:10) 6.67 (19:00) 0 0 0 0 0
17-06-2018 24.6 (17:40) 8.7 (00:00) 16.7 8.89 (12:30) 5 (18:40) 0 0 0 0 0

Gráficas

Temp. máximas Temp. mínimas Temp. medias Precipitaciones Rachas de viento máximas Velocidades máximas media en intervalos de 10 minutos

Datos horarios

Fecha y hora oficial Temperatura (ºC) Velocidad del viento (km/h) Dirección del viento Racha (km/h) Dirección de racha Precipitación (mm) Presión (hPa) Tendencia (hPa) Humedad (%)
2018-07-16 23:00:00 17.1 9 Este 19 Este 0 -- -- 76
2018-07-16 22:00:00 19.2 9 Este 31 Este 0 -- -- 67
2018-07-16 21:00:00 22.1 13 Nordeste 29 Este 0 -- -- 56
2018-07-16 20:00:00 23.8 16 Este 28 Este 0 -- -- 50
2018-07-16 19:00:00 24 12 Este 29 Este 0 -- -- 48
2018-07-16 18:00:00 24.9 14 Este 26 Este 0 -- -- 46
2018-07-16 17:00:00 24.2 13 Este 23 Este 0 -- -- 50
2018-07-16 16:00:00 25.3 12 Sudeste 23 Norte 0 -- -- 47
2018-07-16 15:00:00 25.3 5 Sudeste 15 Sudoeste 0 -- -- 46
2018-07-16 14:00:00 24.8 7 Oeste 15 Noroeste 0 -- -- 47
2018-07-16 13:00:00 22.8 5 Oeste 14 Noroeste 0 -- -- 55
2018-07-16 12:00:00 21.6 6 Oeste 15 Sudoeste 0 -- -- 59
2018-07-16 11:00:00 19.6 4 Oeste 13 Oeste 0 -- -- 69
2018-07-16 10:00:00 18 2 Sudoeste 6 Oeste 0 -- -- 79
2018-07-16 09:00:00 15.6 4 Sudoeste 8 Oeste 0 -- -- 88
2018-07-16 08:00:00 14.7 3 Sudoeste 8 Oeste 0 -- -- 87
2018-07-16 07:00:00 14.9 4 Nordeste 8 Nordeste 0 -- -- 90
2018-07-16 06:00:00 14.2 3 Sudoeste 8 Oeste 0 -- -- 91
2018-07-16 05:00:00 14 0 Calma 10 Sudoeste 0 -- -- 88
2018-07-16 04:00:00 15.1 7 Sudoeste 18 Sudoeste 0 -- -- 87
2018-07-16 03:00:00 15.9 5 Este 12 Oeste 0.2 -- -- 88
2018-07-16 02:00:00 16.3 3 Sur 17 Este 0.6 -- -- 85
2018-07-16 01:00:00 16.9 10 Nordeste 23 Nordeste 0.2 -- -- 78
2018-07-16 00:00:00 17.8 6 Este 26 Nordeste 0 -- -- 78
2018-07-15 23:00:00 18.3 14 Nordeste 27 Nordeste 0 -- -- 75
2018-07-15 22:00:00 20.1 14 Nordeste 27 Este 0 -- -- 70
2018-07-15 21:00:00 22.9 15 Nordeste 40 Norte 0 -- -- 60
2018-07-15 20:00:00 26.5 13 Oeste 30 Oeste 0 -- -- 34
2018-07-15 19:00:00 27.4 14 Noroeste 31 Oeste 0 -- -- 35
2018-07-15 18:00:00 26.5 10 Oeste 28 Oeste 0 -- -- 37
2018-07-15 17:00:00 27.5 10 Oeste 21 Oeste 0 -- -- 38
2018-07-15 16:00:00 27 7 Oeste 21 Oeste 0 -- -- 41
2018-07-15 15:00:00 27.1 10 Noroeste 21 Oeste 0 -- -- 46
2018-07-15 14:00:00 25.1 6 Sur 17 Oeste 0 -- -- 52
2018-07-15 13:00:00 24.8 9 Noroeste 26 Noroeste 0 -- -- 52
2018-07-15 12:00:00 23.3 8 Oeste 21 Sudoeste 0 -- -- 57
2018-07-15 11:00:00 20.8 4 Oeste 14 Sudoeste 0 -- -- 64
2018-07-15 10:00:00 18.4 8 Sudoeste 14 Sudoeste 0 -- -- 75
2018-07-15 09:00:00 16.2 3 Sudoeste 13 Este 0 -- -- 94
2018-07-15 08:00:00 15.3 7 Este 14 Este 0 -- -- 95
2018-07-15 07:00:00 13.4 3 Nordeste 4 Nordeste 0 -- -- 93
2018-07-15 06:00:00 14.4 3 Sur 5 Este 0 -- -- 92
2018-07-15 05:00:00 15.1 2 Sudeste 9 Este 0 -- -- 91
2018-07-15 04:00:00 15.4 4 Norte 8 Norte 0 -- -- 91
2018-07-15 03:00:00 16.6 0 Calma 8 Nordeste 0 -- -- 89
2018-07-15 02:00:00 16.9 4 Nordeste 9 Norte 0 -- -- 89
2018-07-15 01:00:00 18.5 6 Este 11 Este 0 -- -- 88
2018-07-15 00:00:00 19.7 4 Este 9 Noroeste 0 -- -- 82
2018-07-14 23:00:00 21.6 4 Nordeste 18 Este 0 -- -- 75
2018-07-14 22:00:00 23.6 10 Nordeste 25 Nordeste 0 -- -- 68
2018-07-14 21:00:00 27.7 11 Norte 19 Oeste 0 -- -- 40
2018-07-14 20:00:00 30.3 9 Oeste 19 Oeste 0 -- -- 30
2018-07-14 19:00:00 30.9 5 Sudoeste 17 Oeste 0 -- -- 28
2018-07-14 18:00:00 30.7 11 Oeste 22 Sudoeste 0 -- -- 29
2018-07-14 17:00:00 30.3 8 Oeste 27 Sudoeste 0 -- -- 35
2018-07-14 16:00:00 29.9 13 Sudoeste 25 Sur 0 -- -- 37
2018-07-14 15:00:00 29.2 12 Sudoeste 22 Sudoeste 0 -- -- 39
2018-07-14 14:00:00 28.2 8 Oeste 19 Oeste 0 -- -- 47
2018-07-14 13:00:00 26.6 3 Sudoeste 16 Sudoeste 0 -- -- 50
2018-07-14 12:00:00 24.9 6 Noroeste 13 Noroeste 0 -- -- 57
2018-07-14 11:00:00 23.3 4 Este 12 Sudeste 0 -- -- 60
2018-07-14 10:00:00 20.7 6 Nordeste 12 Nordeste 0 -- -- 74
2018-07-14 09:00:00 17.7 5 Nordeste 12 Nordeste 0 -- -- 82
2018-07-14 08:00:00 13.9 5 Este 9 Este 0 -- -- 92
2018-07-14 07:00:00 13.3 0 Calma 4 Sudoeste 0 -- -- 87
2018-07-14 06:00:00 15.6 0 Calma 10 Este 0 -- -- 81
2018-07-14 05:00:00 17.7 7 Nordeste 22 Este 0 -- -- 75
2018-07-14 04:00:00 17.9 9 Este 36 Este 0 -- -- 73
2018-07-14 03:00:00 18.5 15 Este 34 Este 0.2 -- -- 68
2018-07-14 02:00:00 18.5 17 Este 36 Este 0 -- -- 70
2018-07-14 01:00:00 17 16 Nordeste 32 Nordeste 0 -- -- 79
2018-07-14 00:00:00 16.7 14 Nordeste 40 Norte 0 -- -- 80
2018-07-13 23:00:00 17.8 25 Norte 43 Norte 0.2 -- -- 73
2018-07-13 22:00:00 20.7 25 Norte 43 Norte 0 -- -- 82
2018-07-13 21:00:00 22 16 Nordeste 41 Este 0 -- -- 76
2018-07-13 20:00:00 21.8 16 Este 42 Este 0.2 -- -- 73
2018-07-13 19:00:00 22.5 18 Nordeste 36 Este 0 -- -- 75
2018-07-13 18:00:00 19.6 14 Nordeste 33 Nordeste 1.4 -- -- 86
2018-07-13 17:00:00 19 15 Nordeste 44 Este 11 -- -- 78
2018-07-13 16:00:00 28 10 Nordeste 32 Este 0 -- -- 44
2018-07-13 15:00:00 29.5 13 Nordeste 27 Nordeste 0 -- -- 40
2018-07-13 14:00:00 27.9 12 Nordeste 26 Este 0 -- -- 45
2018-07-13 13:00:00 26.4 15 Nordeste 25 Nordeste 0.4 -- -- 53
2018-07-13 12:00:00 24 10 Este 28 Este 0 -- -- 60
2018-07-13 11:00:00 23.8 14 Este 28 Este 0 -- -- 60
2018-07-13 10:00:00 21.1 13 Este 24 Nordeste 0 -- -- 68
2018-07-13 09:00:00 17.9 13 Nordeste 22 Nordeste 0 -- -- 77
2018-07-13 08:00:00 14.6 6 Nordeste 13 Nordeste 0 -- -- 91
2018-07-13 07:00:00 13.5 7 Nordeste 13 Nordeste 0 -- -- 92
2018-07-13 06:00:00 13.8 7 Nordeste 12 Nordeste 0 -- -- 92
2018-07-13 05:00:00 14 6 Nordeste 13 Este 0 -- -- 91
2018-07-13 04:00:00 14.2 4 Nordeste 15 Nordeste 0 -- -- 90
2018-07-13 03:00:00 14.7 8 Nordeste 22 Nordeste 0 -- -- 89
2018-07-13 02:00:00 15.3 10 Este 20 Este 0 -- -- 87
2018-07-13 01:00:00 15.6 6 Nordeste 16 Este 0 -- -- 86
2018-07-13 00:00:00 16.6 8 Nordeste 17 Este 0 -- -- 82
2018-07-12 23:00:00 18.3 9 Este 25 Nordeste 0 -- -- 72
2018-07-12 22:00:00 20.4 13 Nordeste 27 Nordeste 0 -- -- 65
2018-07-12 21:00:00 23.1 17 Nordeste 36 Nordeste 0 -- -- 55
2018-07-12 20:00:00 25 17 Nordeste 29 Nordeste 0 -- -- 46
2018-07-12 19:00:00 25.9 14 Nordeste 31 Nordeste 0 -- -- 43
2018-07-12 18:00:00 25.6 15 Nordeste 28 Nordeste 0 -- -- 44
2018-07-12 17:00:00 26.2 9 Norte 22 Nordeste 0 -- -- 43
2018-07-12 16:00:00 25.2 10 Este 24 Norte 0 -- -- 47
2018-07-12 15:00:00 25.4 8 Norte 24 Norte 0 -- -- 48
2018-07-12 14:00:00 24.6 11 Nordeste 27 Nordeste 0 -- -- 54
2018-07-12 13:00:00 24 8 Nordeste 20 Nordeste 0 -- -- 53
2018-07-12 12:00:00 22.6 11 Nordeste 22 Nordeste 0 -- -- 60
2018-07-12 11:00:00 20.6 13 Nordeste 26 Nordeste 0 -- -- 68
2018-07-12 10:00:00 18.7 13 Nordeste 26 Nordeste 0 -- -- 75
2018-07-12 09:00:00 16.2 12 Nordeste 18 Este 0 -- -- 84
2018-07-12 08:00:00 12.8 3 Nordeste 9 Nordeste 0 -- -- 95
2018-07-12 07:00:00 11.7 2 Noroeste 6 Norte 0 -- -- 94
2018-07-12 06:00:00 12 4 Norte 6 Nordeste 0 -- -- 92
2018-07-12 05:00:00 13 0 Calma 8 Nordeste 0 -- -- 91
2018-07-12 04:00:00 13.8 6 Este 16 Este 0 -- -- 91
2018-07-12 03:00:00 14.5 9 Este 15 Este 0 -- -- 90
2018-07-12 02:00:00 14 3 Nordeste 9 Este 0 -- -- 91
2018-07-12 01:00:00 14.9 6 Nordeste 14 Este 0 -- -- 89
2018-07-12 00:00:00 15.7 5 Este 14 Este 0 -- -- 86
2018-07-11 23:00:00 16.9 9 Este 15 Este 0 -- -- 82
2018-07-11 22:00:00 18.4 9 Nordeste 26 Nordeste 0 -- -- 77
2018-07-11 21:00:00 21.6 14 Nordeste 24 Nordeste 0 -- -- 61
2018-07-11 20:00:00 23.5 6 Nordeste 22 Nordeste 0 -- -- 50
2018-07-11 19:00:00 23.4 8 Nordeste 23 Este 0 -- -- 48
2018-07-11 18:00:00 23.2 9 Nordeste 27 Este 0 -- -- 53
2018-07-11 17:00:00 22 13 Nordeste 32 Este 0 -- -- 58
2018-07-11 16:00:00 20.8 20 Este 37 Este 0 -- -- 62
2018-07-11 15:00:00 17.3 18 Nordeste 34 Este 0.8 -- -- 86
2018-07-11 14:00:00 15.1 17 Norte 32 Norte 0.4 -- -- 83
2018-07-11 13:00:00 15.9 17 Norte 48 Norte 0.6 -- -- 82
2018-07-11 12:00:00 15.7 27 Norte 40 Norte 0.8 -- -- 79
2018-07-11 11:00:00 21.7 16 Nordeste 36 Este 0 -- -- 58
2018-07-11 10:00:00 19 19 Nordeste 39 Este 0 -- -- 67
2018-07-11 09:00:00 17.3 12 Nordeste 23 Nordeste 0 -- -- 74
2018-07-11 08:00:00 13.4 5 Nordeste 10 Este 0 -- -- 91
2018-07-11 07:00:00 11.8 5 Nordeste 9 Nordeste 0 -- -- 91
2018-07-11 06:00:00 12.3 3 Nordeste 5 Nordeste 0 -- -- 88
2018-07-11 05:00:00 13.6 4 Sudoeste 9 Este 0 -- -- 86
2018-07-11 04:00:00 14.1 8 Este 16 Este 0 -- -- 84
2018-07-11 03:00:00 14.6 9 Nordeste 16 Nordeste 0 -- -- 83
2018-07-11 02:00:00 15.4 7 Nordeste 16 Este 0 -- -- 82
2018-07-11 01:00:00 17 8 Nordeste 22 Este 0 -- -- 77
2018-07-11 00:00:00 18.3 12 Este 25 Nordeste 0 -- -- 73
2018-07-10 23:00:00 19.2 10 Nordeste 19 Nordeste 0 -- -- 71
2018-07-10 22:00:00 21.6 12 Nordeste 26 Nordeste 0 -- -- 63
2018-07-10 21:00:00 24.7 15 Nordeste 30 Nordeste 0 -- -- 53
2018-07-10 20:00:00 27 12 Nordeste 24 Nordeste 0 -- -- 42
2018-07-10 19:00:00 28 12 Nordeste 24 Norte 0 -- -- 35
2018-07-10 18:00:00 28.6 12 Nordeste 29 Nordeste 0 -- -- 31
2018-07-10 17:00:00 28.6 12 Nordeste 30 Norte 0 -- -- 32
2018-07-10 16:00:00 28.1 10 Nordeste 24 Nordeste 0 -- -- 35
2018-07-10 15:00:00 27.3 12 Norte 23 Este 0 -- -- 37
2018-07-10 14:00:00 26.3 11 Este 26 Nordeste 0 -- -- 41
2018-07-10 13:00:00 25.6 13 Nordeste 26 Nordeste 0 -- -- 43
2018-07-10 12:00:00 24.3 15 Este 30 Este 0 -- -- 46
2018-07-10 11:00:00 23 14 Este 30 Este 0 -- -- 52
2018-07-10 10:00:00 20.3 9 Nordeste 17 Nordeste 0 -- -- 67
2018-07-10 09:00:00 16.6 6 Nordeste 11 Nordeste 0 -- -- 78
2018-07-10 08:00:00 12.8 4 Nordeste 9 Nordeste 0 -- -- 92
2018-07-10 07:00:00 11.6 5 Nordeste 10 Nordeste 0 -- -- 91
2018-07-10 06:00:00 11.7 4 Este 7 Nordeste 0 -- -- 91
2018-07-10 05:00:00 11.9 3 Este 9 Norte 0 -- -- 91
2018-07-10 04:00:00 12.2 6 Nordeste 9 Norte 0 -- -- 91
2018-07-10 03:00:00 13.1 6 Nordeste 9 Nordeste 0 -- -- 86
2018-07-10 02:00:00 14.2 4 Nordeste 15 Este 0 -- -- 83
2018-07-10 01:00:00 15.7 9 Este 15 Este 0 -- -- 77
2018-07-10 00:00:00 16.7 5 Este 14 Este 0 -- -- 73
2018-07-09 23:00:00 18.4 7 Este 13 Este 0 -- -- 67
2018-07-09 22:00:00 20.9 10 Nordeste 27 Nordeste 0 -- -- 58
2018-07-09 21:00:00 23.9 16 Nordeste 31 Nordeste 0 -- -- 50
2018-07-09 20:00:00 25.8 19 Nordeste 32 Nordeste 0 -- -- 46
2018-07-09 19:00:00 26.7 17 Nordeste 33 Este 0 -- -- 43
2018-07-09 18:00:00 28.1 15 Nordeste 28 Este 0 -- -- 39
2018-07-09 17:00:00 28.1 16 Nordeste 33 Nordeste 0 -- -- 41
2018-07-09 16:00:00 27.7 14 Nordeste 29 Nordeste 0 -- -- 42
2018-07-09 15:00:00 27.2 15 Este 30 Este 0 -- -- 44
2018-07-09 14:00:00 26.4 17 Nordeste 34 Este 0 -- -- 44
2018-07-09 13:00:00 25.7 17 Nordeste 34 Este 0 -- -- 46
2018-07-09 12:00:00 24.6 18 Nordeste 39 Este 0 -- -- 53
2018-07-09 11:00:00 23.2 18 Nordeste 29 Nordeste 0 -- -- 60
2018-07-09 10:00:00 21.3 14 Nordeste 24 Nordeste 0 -- -- 68
2018-07-09 09:00:00 18.1 5 Este 13 Este 0 -- -- 84
2018-07-09 08:00:00 15.1 5 Este 19 Este 0 -- -- 92
2018-07-09 07:00:00 13.4 5 Nordeste 10 Este 0 -- -- 94
2018-07-09 06:00:00 13.8 6 Este 12 Este 0 -- -- 93
2018-07-09 05:00:00 13.9 5 Nordeste 9 Nordeste 0 -- -- 91
2018-07-09 04:00:00 14.5 3 Norte 13 Este 0 -- -- 89
2018-07-09 03:00:00 14.8 6 Norte 11 Este 0 -- -- 89
2018-07-09 02:00:00 15.2 0 Calma 9 Norte 0 -- -- 91
2018-07-09 01:00:00 15.6 2 Nordeste 10 Este 0 -- -- 88
2018-07-09 00:00:00 15.8 7 Nordeste 15 Nordeste 0 -- -- 86
2018-07-08 23:00:00 16.5 11 Nordeste 24 Norte 0 -- -- 82
2018-07-08 22:00:00 16.9 12 Nordeste 30 Este 0 -- -- 83
2018-07-08 21:00:00 18 11 Nordeste 42 Este 0.2 -- -- 81
2018-07-08 20:00:00 17.7 19 Este 40 Nordeste 9.6 -- -- 88
2018-07-08 19:00:00 20.3 6 Noroeste 31 Oeste 2.6 -- -- 82
2018-07-08 18:00:00 26.5 17 Nordeste 36 Nordeste 0 -- -- 49
2018-07-08 17:00:00 29.1 17 Nordeste 37 Nordeste 0 -- -- 43
2018-07-08 16:00:00 30.5 10 Nordeste 25 Este 0 -- -- 39
2018-07-08 15:00:00 29.5 11 Este 26 Nordeste 0 -- -- 39
2018-07-08 14:00:00 28.5 12 Este 27 Este 0 -- -- 42
2018-07-08 13:00:00 27.2 15 Este 30 Este 0 -- -- 44
2018-07-08 12:00:00 25.9 16 Este 31 Este 0 -- -- 48
2018-07-08 11:00:00 23.7 13 Nordeste 26 Nordeste 0 -- -- 56
2018-07-08 10:00:00 20.9 13 Este 26 Este 0 -- -- 70
2018-07-08 09:00:00 18.7 10 Nordeste 19 Nordeste 0 -- -- 83
2018-07-08 08:00:00 16.3 9 Nordeste 16 Este 0 -- -- 92
2018-07-08 07:00:00 15.9 6 Nordeste 15 Nordeste 0 -- -- 92
2018-07-08 06:00:00 16.1 8 Este 18 Nordeste 0 -- -- 93
2018-07-08 05:00:00 16.4 7 Nordeste 14 Este 0 -- -- 93
2018-07-08 04:00:00 16.2 4 Este 15 Este 0 -- -- 93
2018-07-08 03:00:00 16.1 8 Este 13 Este 0 -- -- 92
2018-07-08 02:00:00 16.5 4 Este 10 Este 0 -- -- 89
2018-07-08 01:00:00 17 5 Nordeste 24 Este 0 -- -- 84
2018-07-08 00:00:00 17 7 Nordeste 19 Este 0 -- -- 88
2018-07-07 23:00:00 16.9 11 Este 21 Nordeste 0 -- -- 85
2018-07-07 22:00:00 17.8 14 Nordeste 35 Nordeste 0 -- -- 89
2018-07-07 21:00:00 18.4 19 Nordeste 36 Nordeste 2.2 -- -- 90
2018-07-07 20:00:00 18.3 18 Nordeste 55 Sudeste 1.6 -- -- 86
2018-07-07 19:00:00 23.9 21 Nordeste 39 Este 0 -- -- 56
2018-07-07 18:00:00 24.2 15 Nordeste 34 Este 0 -- -- 60
2018-07-07 17:00:00 29.5 18 Nordeste 31 Este 0 -- -- 45
2018-07-07 16:00:00 28.1 5 Nordeste 21 Noroeste 0 -- -- 43
2018-07-07 15:00:00 28.7 5 Norte 14 Este 0 -- -- 43
2018-07-07 14:00:00 26.7 6 Norte 21 Este 0 -- -- 48
2018-07-07 13:00:00 26.2 6 Este 14 Nordeste 0 -- -- 50
2018-07-07 12:00:00 24 5 Sudeste 16 Nordeste 0 -- -- 55
2018-07-07 11:00:00 21.8 8 Nordeste 18 Nordeste 0.2 -- -- 65
2018-07-07 10:00:00 19.6 7 Nordeste 13 Nordeste 0 -- -- 74
2018-07-07 09:00:00 17.5 7 Nordeste 16 Nordeste 0 -- -- 81
2018-07-07 08:00:00 14.8 0 Calma 12 Nordeste 0 -- -- 91
2018-07-07 07:00:00 13.8 5 Nordeste 15 Nordeste 0 -- -- 92
2018-07-07 06:00:00 13.8 5 Este 12 Nordeste 0 -- -- 92
2018-07-07 05:00:00 14.4 5 Nordeste 15 Nordeste 0 -- -- 92
2018-07-07 04:00:00 14.9 8 Nordeste 20 Nordeste 0 -- -- 92
2018-07-07 03:00:00 15.4 12 Nordeste 22 Nordeste 0 -- -- 91
2018-07-07 02:00:00 15.9 12 Norte 23 Norte 0.8 -- -- 90
2018-07-07 01:00:00 17.4 7 Nordeste 25 Este 0.8 -- -- 83
2018-07-07 00:00:00 18.4 13 Nordeste 25 Nordeste 0 -- -- 75
2018-07-06 23:00:00 18.9 12 Nordeste 21 Nordeste 0 -- -- 72
2018-07-06 22:00:00 21.2 7 Nordeste 22 Nordeste 0 -- -- 55
2018-07-06 21:00:00 24.3 12 Nordeste 25 Nordeste 0 -- -- 45
2018-07-06 20:00:00 25.8 13 Nordeste 24 Este 0 -- -- 42
2018-07-06 19:00:00 26.4 11 Este 24 Este 0 -- -- 40
2018-07-06 18:00:00 26.2 11 Nordeste 21 Nordeste 0 -- -- 40
2018-07-06 17:00:00 27.4 8 Nordeste 22 Norte 0 -- -- 38
2018-07-06 16:00:00 26.4 9 Nordeste 22 Nordeste 0 -- -- 39
2018-07-06 15:00:00 26.7 9 Nordeste 19 Este 0 -- -- 41
2018-07-06 14:00:00 24.8 7 Este 20 Sudeste 0 -- -- 44
2018-07-06 13:00:00 23.6 8 Este 23 Nordeste 0 -- -- 50
2018-07-06 12:00:00 21.7 10 Nordeste 22 Este 0 -- -- 55
2018-07-06 11:00:00 20.3 13 Nordeste 26 Este 0 -- -- 59
2018-07-06 10:00:00 18.5 15 Nordeste 31 Este 0 -- -- 66
2018-07-06 09:00:00 16.2 13 Este 25 Este 0 -- -- 80
2018-07-06 08:00:00 12.6 6 Nordeste 13 Nordeste 0 -- -- 93
2018-07-06 07:00:00 11.5 6 Este 16 Este 0 -- -- 92
2018-07-06 06:00:00 11.4 6 Este 12 Este 0 -- -- 92
2018-07-06 05:00:00 11.8 8 Este 15 Nordeste 0 -- -- 92
2018-07-06 04:00:00 12.3 11 Este 18 Este 0 -- -- 91
2018-07-06 03:00:00 12.5 8 Este 17 Este 0 -- -- 90
2018-07-06 02:00:00 12.8 8 Este 18 Este 0 -- -- 89
2018-07-06 01:00:00 13.4 8 Este 20 Nordeste 0 -- -- 87
2018-07-06 00:00:00 14.2 10 Nordeste 22 Nordeste 0 -- -- 84
2018-07-05 23:00:00 15 12 Nordeste 23 Nordeste 0 -- -- 81
2018-07-05 22:00:00 16.6 13 Nordeste 32 Nordeste 0 -- -- 75
2018-07-05 21:00:00 19.7 21 Nordeste 33 Nordeste 0 -- -- 64
2018-07-05 20:00:00 22.3 10 Norte 22 Nordeste 0 -- -- 53
2018-07-05 19:00:00 25.9 9 Norte 21 Norte 0 -- -- 36
2018-07-05 18:00:00 25 9 Nordeste 22 Noroeste 0 -- -- 39
2018-07-05 17:00:00 26.1 12 Oeste 23 Oeste 0 -- -- 36
2018-07-05 16:00:00 24 9 Norte 21 Noroeste 0 -- -- 42
2018-07-05 15:00:00 24.1 8 Noroeste 20 Noroeste 0 -- -- 44
2018-07-05 14:00:00 23.2 7 Noroeste 23 Norte 0 -- -- 45
2018-07-05 13:00:00 21.4 7 Nordeste 14 Norte 0 -- -- 50
2018-07-05 12:00:00 20.2 5 Noroeste 15 Noroeste 0 -- -- 56
2018-07-05 11:00:00 19.1 6 Noroeste 17 Noroeste 0 -- -- 62
2018-07-05 10:00:00 17.8 5 Este 12 Norte 0 -- -- 68
2018-07-05 09:00:00 15.4 6 Nordeste 12 Nordeste 0 -- -- 78
2018-07-05 08:00:00 12.5 2 Este 5 Este 0 -- -- 90
2018-07-05 07:00:00 11.5 0 Calma 3 Noroeste 0 -- -- 91
2018-07-05 06:00:00 12 2 Norte 5 Nordeste 0 -- -- 91
2018-07-05 05:00:00 12 4 Noroeste 6 Nordeste 0 -- -- 92
2018-07-05 04:00:00 12.3 3 Este 7 Nordeste 0 -- -- 88
2018-07-05 03:00:00 13.8 4 Nordeste 12 Nordeste 0 -- -- 86
2018-07-05 02:00:00 14 4 Nordeste 18 Nordeste 0 -- -- 85
2018-07-05 01:00:00 14.1 8 Este 16 Este 0 -- -- 85
2018-07-05 00:00:00 14.5 6 Nordeste 23 Nordeste 0 -- -- 83
2018-07-04 23:00:00 15.8 10 Nordeste 27 Nordeste 0 -- -- 80
2018-07-04 22:00:00 16.7 12 Nordeste 26 Nordeste 0 -- -- 76
2018-07-04 21:00:00 17.9 17 Nordeste 30 Nordeste 0 -- -- 73
2018-07-04 20:00:00 19.7 18 Nordeste 46 Norte 0 -- -- 65
2018-07-04 19:00:00 25.6 17 Oeste 34 Oeste 0 -- -- 41
2018-07-04 18:00:00 25.4 17 Noroeste 34 Noroeste 0 -- -- 42
2018-07-04 17:00:00 24.7 13 Oeste 32 Noroeste 0 -- -- 47
2018-07-04 16:00:00 24.5 15 Noroeste 36 Noroeste 0 -- -- 48
2018-07-04 15:00:00 23.2 22 Noroeste 40 Norte 0 -- -- 57
2018-07-04 14:00:00 22.6 18 Oeste 36 Oeste 0 -- -- 55
2018-07-04 13:00:00 24.3 13 Sudoeste 26 Sudoeste 0 -- -- 53
2018-07-04 12:00:00 23.4 7 Sudoeste 15 Sudoeste 0 -- -- 49
2018-07-04 11:00:00 21.9 8 Oeste 17 Sudoeste 0 -- -- 58
2018-07-04 10:00:00 20.8 4 Nordeste 18 Este 0 -- -- 64
2018-07-04 09:00:00 18.9 9 Nordeste 20 Este 0 -- -- 81
2018-07-04 08:00:00 15.1 4 Nordeste 10 Este 0 -- -- 93
2018-07-04 07:00:00 14.7 3 Nordeste 8 Este 0 -- -- 90
2018-07-04 06:00:00 15.5 3 Sudeste 7 Este 0 -- -- 91
2018-07-04 05:00:00 15 0 Calma 7 Este 0 -- -- 91
2018-07-04 04:00:00 15.2 3 Nordeste 18 Nordeste 0 -- -- 90
2018-07-04 03:00:00 15.1 9 Nordeste 19 Nordeste 0 -- -- 91
2018-07-04 02:00:00 14.8 4 Este 14 Este 0 -- -- 87
2018-07-04 01:00:00 14.2 6 Este 12 Nordeste 0 -- -- 80
2018-07-04 00:00:00 15.5 2 Sudeste 8 Este 0 -- -- 74
2018-07-03 23:00:00 17.1 4 Este 7 Este 0 -- -- 66
2018-07-03 22:00:00 20.7 3 Sur 8 Oeste 0 -- -- 58
2018-07-03 21:00:00 25.8 4 Oeste 12 Oeste 0 -- -- 41
2018-07-03 20:00:00 26.5 5 Oeste 22 Sudoeste 0 -- -- 36
2018-07-03 19:00:00 26.6 13 Sudoeste 28 Sudoeste 0 -- -- 33
2018-07-03 18:00:00 26.1 8 Sudoeste 24 Sudoeste 0 -- -- 38
2018-07-03 17:00:00 26.6 8 Sudoeste 22 Sudoeste 0 -- -- 38
2018-07-03 16:00:00 25.8 14 Oeste 25 Sudoeste 0 -- -- 41
2018-07-03 15:00:00 24.4 11 Oeste 22 Oeste 0 -- -- 45
2018-07-03 14:00:00 22.9 8 Noroeste 18 Oeste 0 -- -- 52
2018-07-03 13:00:00 21.9 6 Sudoeste 20 Noroeste 0 -- -- 58
2018-07-03 12:00:00 21.5 8 Sudoeste 18 Noroeste 0 -- -- 60
2018-07-03 11:00:00 19.7 8 Oeste 15 Sudoeste 0 -- -- 67
2018-07-03 10:00:00 18 6 Sudoeste 15 Sudoeste 0 -- -- 75
2018-07-03 09:00:00 15.7 6 Sudoeste 12 Sudoeste 0 -- -- 86
2018-07-03 08:00:00 12.6 0 Calma 2 Este 0 -- -- 95
2018-07-03 07:00:00 11.2 0 Calma 4 Nordeste 0 -- -- 94
2018-07-03 06:00:00 10.7 0 Calma 6 Este 0 -- -- 92
2018-07-03 05:00:00 11.1 3 Nordeste 5 Este 0 -- -- 92
2018-07-03 04:00:00 11.8 0 Calma 4 Este 0 -- -- 92
2018-07-03 03:00:00 11.9 2 Este 4 Este 0 -- -- 89
2018-07-03 02:00:00 12.8 2 Sudeste 5 Oeste 0 -- -- 89
2018-07-03 01:00:00 13.8 3 Sudoeste 6 Sudoeste 0 -- -- 86
2018-07-03 00:00:00 16.2 5 Sudoeste 13 Sudoeste 0 -- -- 77
2018-07-02 23:00:00 17.3 5 Sudoeste 12 Sudoeste 0 -- -- 72
2018-07-02 22:00:00 19.2 7 Oeste 18 Noroeste 0 -- -- 65
2018-07-02 21:00:00 22.1 12 Oeste 22 Oeste 0 -- -- 54
2018-07-02 20:00:00 23.6 13 Oeste 23 Oeste 0 -- -- 48
2018-07-02 19:00:00 22.7 8 Oeste 23 Oeste 0 -- -- 50
2018-07-02 18:00:00 23.3 11 Oeste 23 Sudoeste 0 -- -- 49
2018-07-02 17:00:00 22.9 10 Oeste 28 Oeste 0 -- -- 52
2018-07-02 16:00:00 22.7 17 Oeste 32 Oeste 0 -- -- 49
2018-07-02 15:00:00 22.6 17 Oeste 35 Oeste 0 -- -- 53
2018-07-02 14:00:00 21.6 16 Oeste 27 Oeste 0 -- -- 55
2018-07-02 13:00:00 21.4 12 Oeste 27 Sudoeste 0 -- -- 57
2018-07-02 12:00:00 21.6 15 Sudoeste 25 Oeste 0 -- -- 55
2018-07-02 11:00:00 19.9 10 Sur 20 Sudoeste 0 -- -- 60
2018-07-02 10:00:00 18.2 8 Sudoeste 14 Sudoeste 0 -- -- 70
2018-07-02 09:00:00 14.9 3 Oeste 7 Oeste 0 -- -- 90
2018-07-02 08:00:00 12.9 2 Oeste 5 Oeste 0 -- -- 93
2018-07-02 07:00:00 12.2 0 Calma 2 Noroeste 0 -- -- 94
2018-07-02 06:00:00 11.7 0 Calma 3 Nordeste 0 -- -- 95
2018-07-02 05:00:00 10.8 2 Sudeste 4 Este 0 -- -- 94
2018-07-02 04:00:00 10.5 0 Calma 5 Noroeste 0 -- -- 92
2018-07-02 03:00:00 11.3 2 Oeste 5 Sudoeste 0 -- -- 92
2018-07-02 02:00:00 11.8 0 Calma 3 Nordeste 0 -- -- 90
2018-07-02 01:00:00 12.9 0 Calma 5 Oeste 0 -- -- 88
2018-07-02 00:00:00 14.5 3 Sudeste 8 Sudoeste 0 -- -- 84
2018-07-01 23:00:00 15.7 5 Sudoeste 14 Sudoeste 0 -- -- 81
2018-07-01 22:00:00 16.3 3 Sudeste 21 Oeste 1.4 -- -- 83
2018-07-01 21:00:00 17.6 12 Oeste 42 Sudoeste 0 -- -- 71
2018-07-01 20:00:00 21.4 11 Oeste 36 Oeste 0 -- -- 55
2018-07-01 19:00:00 22.7 4 Sudeste 22 Noroeste 1.2 -- -- 57
2018-07-01 18:00:00 25.3 10 Oeste 32 Oeste 0 -- -- 47
2018-07-01 17:00:00 26.3 18 Sudoeste 31 Oeste 0 -- -- 37
2018-07-01 16:00:00 24.8 12 Sudoeste 33 Sudoeste 0 -- -- 44
2018-07-01 15:00:00 25.1 13 Oeste 30 Oeste 0 -- -- 50
2018-07-01 14:00:00 25 14 Sur 32 Sudeste 0 -- -- 41
2018-07-01 13:00:00 24.2 12 Sur 23 Sudoeste 0 -- -- 45
2018-07-01 12:00:00 22.2 6 Oeste 30 Oeste 0 -- -- 58
2018-07-01 11:00:00 21 5 Oeste 12 Sudoeste 0 -- -- 62
2018-07-01 10:00:00 19.3 3 Sudoeste 10 Oeste 0 -- -- 70
2018-07-01 09:00:00 17.3 4 Sudoeste 8 Sudoeste 0 -- -- 79
2018-07-01 08:00:00 13.9 0 Calma 4 Sudoeste 0 -- -- 93
2018-07-01 07:00:00 13.2 2 Sudoeste 6 Sudoeste 0 -- -- 93
2018-07-01 06:00:00 13.6 3 Sudoeste 8 Este 0 -- -- 92
2018-07-01 05:00:00 13.3 4 Sudeste 7 Este 0 -- -- 93
2018-07-01 04:00:00 12.7 0 Calma 4 Este 0 -- -- 91
2018-07-01 03:00:00 13.2 0 Calma 8 Este 0 -- -- 91
2018-07-01 02:00:00 14.2 5 Este 8 Este 0 -- -- 88
2018-07-01 01:00:00 15.3 0 Calma 5 Sur 0 -- -- 84
2018-07-01 00:00:00 17.7 3 Oeste 11 Oeste 0 -- -- 77
2018-06-30 23:00:00 19 4 Sudoeste 9 Sudoeste 0 -- -- 79
2018-06-30 22:00:00 20 0 Calma 9 Nordeste 0 -- -- 72
2018-06-30 21:00:00 22 6 Nordeste 11 Nordeste 0 -- -- 63
2018-06-30 20:00:00 22.9 5 Norte 9 Nordeste 0 -- -- 59
2018-06-30 19:00:00 22.5 5 Noroeste 12 Este 0 -- -- 61
2018-06-30 18:00:00 21.8 8 Nordeste 18 Nordeste 0 -- -- 71
2018-06-30 17:00:00 19.3 9 Nordeste 17 Nordeste 0 -- -- 82
2018-06-30 16:00:00 19.4 13 Noroeste 29 Noroeste 0.2 -- -- 84
2018-06-30 15:00:00 22.3 15 Sudeste 41 Sudeste 0.6 -- -- 70
2018-06-30 14:00:00 24.6 15 Sudeste 31 Este 0 -- -- 54
2018-06-30 13:00:00 25 13 Sur 26 Sudeste 0 -- -- 52
2018-06-30 12:00:00 25.4 11 Sur 31 Sur 0 -- -- 55
2018-06-30 11:00:00 23.4 15 Sudeste 27 Sur 0 -- -- 63
2018-06-30 10:00:00 21.6 14 Sudeste 32 Sudeste 0.2 -- -- 68
2018-06-30 09:00:00 20.2 16 Sudeste 31 Sudeste 0 -- -- 73
2018-06-30 08:00:00 18.4 14 Sudeste 27 Sudeste 0 -- -- 79
2018-06-30 07:00:00 17.6 14 Sudeste 26 Sudeste 0 -- -- 80
2018-06-30 06:00:00 17.4 13 Sudeste 27 Sudeste 0 -- -- 80
2018-06-30 05:00:00 16.4 13 Este 23 Este 0 -- -- 85
2018-06-30 04:00:00 15.6 8 Nordeste 15 Nordeste 0 -- -- 88
2018-06-30 03:00:00 15.7 3 Nordeste 13 Nordeste 0 -- -- 89
2018-06-30 02:00:00 16 8 Este 14 Este 0 -- -- 88
2018-06-30 01:00:00 17.1 3 Este 15 Este 0 -- -- 86
2018-06-30 00:00:00 17.8 9 Nordeste 41 Este 0.2 -- -- 82
2018-06-29 23:00:00 18.3 9 Sudeste 30 Este 2.8 -- -- 82
2018-06-29 22:00:00 20.1 13 Este 28 Este 0.4 -- -- 70
2018-06-29 21:00:00 21.1 12 Nordeste 31 Este 0 -- -- 68
2018-06-29 20:00:00 23.4 14 Este 39 Nordeste 0.4 -- -- 59
2018-06-29 19:00:00 30.5 13 Este 21 Sudeste 0 -- -- 34
2018-06-29 18:00:00 30.1 5 Sur 17 Oeste 0 -- -- 32
2018-06-29 17:00:00 28.5 3 Noroeste 18 Sudoeste 0 -- -- 33
2018-06-29 16:00:00 29.7 11 Sudoeste 21 Sudoeste 0 -- -- 31
2018-06-29 15:00:00 27.8 4 Nordeste 18 Sudoeste 0 -- -- 40
2018-06-29 14:00:00 27 5 Noroeste 17 Sur 0 -- -- 42
2018-06-29 13:00:00 26.7 8 Sudoeste 19 Sudeste 0 -- -- 45
2018-06-29 12:00:00 25 7 Este 22 Este 0 -- -- 52
2018-06-29 11:00:00 23 10 Sudeste 24 Este 0 -- -- 56
2018-06-29 10:00:00 20 7 Nordeste 14 Nordeste 0 -- -- 68
2018-06-29 09:00:00 16.3 7 Nordeste 13 Nordeste 0 -- -- 81
2018-06-29 08:00:00 14.6 8 Nordeste 16 Nordeste 0 -- -- 86
2018-06-29 07:00:00 14.3 7 Este 30 Este 0 -- -- 85
2018-06-29 06:00:00 14.9 18 Este 31 Este 0 -- -- 83
2018-06-29 05:00:00 14.6 8 Nordeste 13 Este 0 -- -- 90
2018-06-29 04:00:00 14.9 5 Nordeste 14 Norte 0 -- -- 87
2018-06-29 03:00:00 15.5 5 Noroeste 19 Noroeste 0 -- -- 85
2018-06-29 02:00:00 15.8 8 Oeste 26 Sudoeste 0 -- -- 81
2018-06-29 01:00:00 15.2 14 Nordeste 32 Nordeste 0 -- -- 83
2018-06-29 00:00:00 16.5 17 Nordeste 30 Nordeste 0 -- -- 80
2018-06-28 23:00:00 17.6 17 Nordeste 30 Nordeste 0 -- -- 75
2018-06-28 22:00:00 18.6 13 Nordeste 33 Nordeste 0 -- -- 73
2018-06-28 21:00:00 20.6 18 Nordeste 33 Nordeste 0 -- -- 69
2018-06-28 20:00:00 22.4 14 Nordeste 38 Este 0 -- -- 64
2018-06-28 19:00:00 23.5 16 Nordeste 31 Nordeste 0 -- -- 60
2018-06-28 18:00:00 24.8 14 Este 27 Este 0 -- -- 53
2018-06-28 17:00:00 26.9 9 Este 27 Sudeste 0 -- -- 49
2018-06-28 16:00:00 27.3 10 Este 26 Sudeste 0 -- -- 50
2018-06-28 15:00:00 26.5 9 Nordeste 23 Nordeste 0 -- -- 52
2018-06-28 14:00:00 25.3 12 Este 24 Nordeste 0 -- -- 55
2018-06-28 13:00:00 23.5 10 Nordeste 26 Norte 0 -- -- 61
2018-06-28 12:00:00 21.3 13 Nordeste 30 Nordeste 0 -- -- 67
2018-06-28 11:00:00 19.8 13 Nordeste 25 Nordeste 0 -- -- 72
2018-06-28 10:00:00 17.3 12 Nordeste 25 Nordeste 0 -- -- 81
2018-06-28 09:00:00 16.1 12 Nordeste 36 Nordeste 0 -- -- 86
2018-06-28 08:00:00 15.9 17 Nordeste 34 Este 0 -- -- 87
2018-06-28 07:00:00 16 16 Este 30 Este 0 -- -- 87
2018-06-28 06:00:00 16.2 12 Nordeste 28 Este 0 -- -- 88
2018-06-28 05:00:00 16.3 13 Nordeste 30 Este 0 -- -- 89
2018-06-28 04:00:00 16.6 14 Nordeste 27 Este 0 -- -- 89
2018-06-28 03:00:00 16.6 7 Nordeste 21 Nordeste 0 -- -- 90
2018-06-28 02:00:00 16.4 4 Nordeste 16 Nordeste 0 -- -- 90
2018-06-28 01:00:00 16.7 9 Este 18 Nordeste 0 -- -- 89
2018-06-28 00:00:00 17.5 10 Nordeste 17 Este 0 -- -- 86
2018-06-27 23:00:00 19.2 10 Nordeste 21 Este 0 -- -- 81
2018-06-27 22:00:00 21.8 12 Este 23 Este 0 -- -- 69
2018-06-27 21:00:00 24.1 14 Nordeste 26 Nordeste 0 -- -- 66
2018-06-27 20:00:00 26.5 13 Este 32 Este 0 -- -- 52
2018-06-27 19:00:00 26 17 Este 42 Este 0 -- -- 49
2018-06-27 18:00:00 27.5 18 Nordeste 39 Este 0 -- -- 43
2018-06-27 17:00:00 28.4 20 Este 38 Sudeste 0 -- -- 45
2018-06-27 16:00:00 30 8 Sur 24 Oeste 0 -- -- 39
2018-06-27 15:00:00 29.9 9 Noroeste 24 Oeste 0 -- -- 45
2018-06-27 14:00:00 28.6 9 Oeste 21 Sudoeste 0 -- -- 49
2018-06-27 13:00:00 27.8 8 Oeste 16 Oeste 0 -- -- 51
2018-06-27 12:00:00 26.7 5 Sudoeste 15 Sudoeste 0 -- -- 55
2018-06-27 11:00:00 25 5 Sudoeste 12 Nordeste 0 -- -- 62
2018-06-27 10:00:00 22.5 4 Sudoeste 10 Sur 0 -- -- 68
2018-06-27 09:00:00 20.7 5 Sur 15 Sur 0 -- -- 74
2018-06-27 08:00:00 18.1 7 Este 12 Este 0 -- -- 87
2018-06-27 07:00:00 16.9 4 Este 11 Este 0 -- -- 91
2018-06-27 06:00:00 16.6 4 Sudoeste 9 Este 0 -- -- 88
2018-06-27 05:00:00 16.9 3 Noroeste 15 Nordeste 0 -- -- 88
2018-06-27 04:00:00 17 6 Este 23 Este 0 -- -- 87
2018-06-27 03:00:00 17.4 9 Este 19 Este 0 -- -- 87
2018-06-27 02:00:00 17.7 13 Este 20 Este 0 -- -- 87
2018-06-27 01:00:00 18.5 10 Este 21 Nordeste 0.2 -- -- 87
2018-06-27 00:00:00 19.4 3 Sudoeste 26 Oeste 1.2 -- -- 82
2018-06-26 23:00:00 19.9 3 Sur 13 Nordeste 0 -- -- 75
2018-06-26 22:00:00 20.3 12 Nordeste 31 Sudeste 0.2 -- -- 69
2018-06-26 21:00:00 23.2 14 Sur 49 Sur 0.2 -- -- 55
2018-06-26 20:00:00 29.5 13 Este 24 Este 0 -- -- 39
2018-06-26 19:00:00 31.6 11 Este 24 Este 0 -- -- 35
2018-06-26 18:00:00 33.4 12 Nordeste 23 Nordeste 0 -- -- 32
2018-06-26 17:00:00 34.1 7 Este 21 Este 0 -- -- 30
2018-06-26 16:00:00 33.4 8 Nordeste 21 Nordeste 0 -- -- 31
2018-06-26 15:00:00 32.8 5 Norte 14 Nordeste 0 -- -- 30
2018-06-26 14:00:00 31.3 5 Norte 16 Este 0 -- -- 32
2018-06-26 13:00:00 30.1 5 Noroeste 10 Nordeste 0 -- -- 37
2018-06-26 12:00:00 27.9 5 Oeste 13 Este 0 -- -- 42
2018-06-26 11:00:00 24.9 5 Norte 11 Nordeste 0 -- -- 49
2018-06-26 10:00:00 21.4 6 Nordeste 10 Nordeste 0 -- -- 61
2018-06-26 09:00:00 18.7 4 Nordeste 7 Nordeste 0 -- -- 69
2018-06-26 08:00:00 16.1 0 Calma 8 Sudoeste 0 -- -- 81
2018-06-26 07:00:00 15.2 2 Oeste 12 Sudoeste 0 -- -- 83
2018-06-26 06:00:00 16.5 5 Sudeste 20 Nordeste 0 -- -- 76
2018-06-26 05:00:00 16.8 8 Este 18 Nordeste 0 -- -- 79
2018-06-26 04:00:00 16.3 9 Nordeste 18 Nordeste 0 -- -- 82
2018-06-26 03:00:00 15.5 4 Nordeste 13 Nordeste 0 -- -- 79
2018-06-26 02:00:00 16.2 7 Nordeste 12 Nordeste 0 -- -- 74
2018-06-26 01:00:00 18 3 Sudeste 9 Oeste 0 -- -- 72
2018-06-26 00:00:00 19.9 4 Oeste 12 Este 0 -- -- 60
2018-06-25 23:00:00 21.3 6 Nordeste 11 Nordeste 0 -- -- 54
2018-06-25 22:00:00 24.4 4 Nordeste 9 Nordeste 0 -- -- 51
2018-06-25 21:00:00 29.2 6 Este 18 Este 0 -- -- 40
2018-06-25 20:00:00 31.2 11 Este 19 Este 0 -- -- 29
2018-06-25 19:00:00 32.2 8 Nordeste 17 Nordeste 0 -- -- 28
2018-06-25 18:00:00 32.8 6 Nordeste 18 Norte 0 -- -- 26
2018-06-25 17:00:00 32.9 10 Nordeste 19 Este 0 -- -- 25
2018-06-25 16:00:00 32.4 9 Nordeste 17 Norte 0 -- -- 28
2018-06-25 15:00:00 31.6 6 Nordeste 21 Este 0 -- -- 27
2018-06-25 14:00:00 30.6 10 Este 23 Este 0 -- -- 30
2018-06-25 13:00:00 29.2 11 Nordeste 22 Este 0 -- -- 31
2018-06-25 12:00:00 27.6 10 Nordeste 22 Este 0 -- -- 35
2018-06-25 11:00:00 25.6 14 Nordeste 26 Nordeste 0 -- -- 38
2018-06-25 10:00:00 22 9 Nordeste 15 Nordeste 0 -- -- 54
2018-06-25 09:00:00 18.1 5 Nordeste 11 Nordeste 0 -- -- 63
2018-06-25 08:00:00 13.8 3 Oeste 12 Este 0 -- -- 75
2018-06-25 07:00:00 12.4 6 Nordeste 15 Este 0 -- -- 79
2018-06-25 06:00:00 13.4 8 Nordeste 15 Nordeste 0 -- -- 76
2018-06-25 05:00:00 13.5 3 Nordeste 13 Nordeste 0 -- -- 80
2018-06-25 04:00:00 14.3 6 Este 10 Este 0 -- -- 78
2018-06-25 03:00:00 15.7 3 Este 15 Nordeste 0 -- -- 75
2018-06-25 02:00:00 16.8 10 Este 16 Este 0 -- -- 73
2018-06-25 01:00:00 17.5 8 Este 13 Este 0 -- -- 68
2018-06-25 00:00:00 18.8 9 Este 16 Nordeste 0 -- -- 56
2018-06-24 23:00:00 20 8 Este 14 Este 0 -- -- 52
2018-06-24 22:00:00 22.2 6 Nordeste 13 Este 0 -- -- 51
2018-06-24 21:00:00 28.7 9 Este 22 Este 0 -- -- 31
2018-06-24 20:00:00 30.8 14 Este 26 Este 0 -- -- 28
2018-06-24 19:00:00 32.4 12 Este 23 Este 0 -- -- 26
2018-06-24 18:00:00 32.7 11 Nordeste 21 Nordeste 0 -- -- 26
2018-06-24 17:00:00 33.1 6 Norte 14 Norte 0 -- -- 27
2018-06-24 16:00:00 32.7 5 Sudeste 17 Nordeste 0 -- -- 27
2018-06-24 15:00:00 31.6 9 Nordeste 19 Nordeste 0 -- -- 33
2018-06-24 14:00:00 30.4 5 Nordeste 16 Nordeste 0 -- -- 32
2018-06-24 13:00:00 28.5 6 Nordeste 16 Nordeste 0 -- -- 26
2018-06-24 12:00:00 26.1 4 Norte 12 Nordeste 0 -- -- 40
2018-06-24 11:00:00 23.2 3 Nordeste 9 Nordeste 0 -- -- 53
2018-06-24 10:00:00 19.6 8 Nordeste 14 Nordeste 0 -- -- 61
2018-06-24 09:00:00 16.3 5 Nordeste 8 Nordeste 0 -- -- 69
2018-06-24 08:00:00 11.7 4 Nordeste 6 Este 0 -- -- 86
2018-06-24 07:00:00 10 0 Calma 7 Norte 0 -- -- 89
2018-06-24 06:00:00 10.5 0 Calma 4 Este 0 -- -- 88
2018-06-24 05:00:00 11.3 3 Nordeste 6 Este 0 -- -- 87
2018-06-24 04:00:00 12.8 4 Nordeste 11 Este 0 -- -- 83
2018-06-24 03:00:00 13 5 Nordeste 14 Nordeste 0 -- -- 84
2018-06-24 02:00:00 14.6 8 Nordeste 13 Nordeste 0 -- -- 81
2018-06-24 01:00:00 14.6 3 Norte 10 Nordeste 0 -- -- 79
2018-06-24 00:00:00 17.3 6 Este 19 Nordeste 0 -- -- 67
2018-06-23 23:00:00 18.5 10 Nordeste 16 Este 0 -- -- 62
2018-06-23 22:00:00 21.5 5 Este 10 Nordeste 0 -- -- 53
2018-06-23 21:00:00 26.5 4 Este 20 Este 0 -- -- 41
2018-06-23 20:00:00 28.4 10 Este 21 Este 0 -- -- 32
2018-06-23 19:00:00 29.5 8 Nordeste 18 Nordeste 0 -- -- 29
2018-06-23 18:00:00 29.6 10 Nordeste 18 Nordeste 0 -- -- 28
2018-06-23 17:00:00 29.3 10 Nordeste 18 Nordeste 0 -- -- 30
2018-06-23 16:00:00 28.8 9 Nordeste 21 Nordeste 0 -- -- 29
2018-06-23 15:00:00 28.1 10 Nordeste 22 Este 0 -- -- 30
2018-06-23 14:00:00 26.9 9 Nordeste 22 Sudeste 0 -- -- 29
2018-06-23 13:00:00 25.5 11 Nordeste 23 Este 0 -- -- 35
2018-06-23 12:00:00 23.6 16 Este 29 Este 0 -- -- 38
2018-06-23 11:00:00 21 15 Nordeste 26 Nordeste 0 -- -- 46
2018-06-23 10:00:00 18.8 13 Nordeste 26 Este 0 -- -- 55
2018-06-23 09:00:00 15.1 7 Nordeste 14 Este 0 -- -- 77
2018-06-23 08:00:00 11.4 0 Calma 6 Noroeste 0 -- -- 90
2018-06-23 07:00:00 10.2 0 Calma 4 Noroeste 0 -- -- 91
2018-06-23 06:00:00 10.8 0 Calma 12 Nordeste 0 -- -- 89
2018-06-23 05:00:00 11.5 8 Nordeste 18 Este 0 -- -- 88
2018-06-23 04:00:00 11.7 7 Este 16 Nordeste 0 -- -- 88
2018-06-23 03:00:00 12.5 8 Este 19 Este 0 -- -- 85
2018-06-23 02:00:00 13.2 6 Nordeste 16 Nordeste 0 -- -- 85
2018-06-23 01:00:00 14.3 9 Nordeste 17 Nordeste 0 -- -- 84
2018-06-23 00:00:00 15.7 9 Nordeste 18 Este 0 -- -- 82
2018-06-22 23:00:00 17.4 9 Este 19 Nordeste 0 -- -- 81
2018-06-22 22:00:00 20.1 10 Nordeste 22 Este 0 -- -- 68
2018-06-22 21:00:00 23.2 13 Nordeste 33 Nordeste 0 -- -- 61
2018-06-22 20:00:00 25.2 20 Nordeste 35 Nordeste 0 -- -- 55
2018-06-22 19:00:00 26.9 17 Nordeste 33 Nordeste 0 -- -- 53
2018-06-22 18:00:00 27.7 16 Nordeste 28 Nordeste 0 -- -- 51
2018-06-22 17:00:00 27.8 12 Nordeste 27 Nordeste 0 -- -- 52
2018-06-22 16:00:00 27.4 12 Nordeste 23 Nordeste 0 -- -- 51
2018-06-22 15:00:00 26.6 14 Nordeste 33 Nordeste 0 -- -- 56
2018-06-22 14:00:00 25.8 14 Nordeste 31 Este 0 -- -- 57
2018-06-22 13:00:00 24.9 17 Este 33 Nordeste 0 -- -- 61
2018-06-22 12:00:00 23.6 19 Nordeste 38 Este 0 -- -- 66
2018-06-22 11:00:00 21.9 18 Nordeste 35 Nordeste 0 -- -- 69
2018-06-22 10:00:00 20.8 19 Nordeste 34 Nordeste 0 -- -- 74
2018-06-22 09:00:00 18.3 18 Este 36 Nordeste 0 -- -- 81
2018-06-22 08:00:00 17.5 19 Nordeste 36 Este 0 -- -- 85
2018-06-22 07:00:00 17.2 14 Nordeste 32 Nordeste 0 -- -- 87
2018-06-22 06:00:00 17.2 19 Este 36 Este 0 -- -- 86
2018-06-22 05:00:00 17.2 13 Nordeste 32 Este 0 -- -- 86
2018-06-22 04:00:00 16.9 9 Nordeste 37 Nordeste 0 -- -- 87
2018-06-22 03:00:00 17.3 21 Nordeste 37 Nordeste 0 -- -- 86
2018-06-22 02:00:00 16.7 13 Nordeste 33 Nordeste 0 -- -- 88
2018-06-22 01:00:00 17 16 Nordeste 30 Nordeste 0 -- -- 87
2018-06-22 00:00:00 17.2 13 Nordeste 31 Este 0 -- -- 86
2018-06-21 23:00:00 17.9 19 Nordeste 43 Nordeste 0 -- -- 82
2018-06-21 22:00:00 19.8 20 Nordeste 37 Este 0 -- -- 76
2018-06-21 21:00:00 22.3 23 Nordeste 40 Nordeste 0 -- -- 70
2018-06-21 20:00:00 25.6 21 Nordeste 36 Nordeste 0 -- -- 63
2018-06-21 19:00:00 27.4 21 Nordeste 36 Nordeste 0 -- -- 58
2018-06-21 18:00:00 28.1 16 Nordeste 30 Nordeste 0 -- -- 54
2018-06-21 17:00:00 29.6 16 Nordeste 30 Nordeste 0 -- -- 48
2018-06-21 16:00:00 27.9 8 Nordeste 19 Nordeste 0 -- -- 47
2018-06-21 15:00:00 29.7 4 Nordeste 23 Nordeste 0 -- -- 42
2018-06-21 14:00:00 28.5 8 Nordeste 19 Nordeste 0 -- -- 45
2018-06-21 13:00:00 26.9 6 Nordeste 22 Nordeste 0 -- -- 56
2018-06-21 12:00:00 26.1 10 Nordeste 19 Nordeste 0 -- -- 57
2018-06-21 11:00:00 23.8 9 Nordeste 20 Nordeste 0 -- -- 67
2018-06-21 10:00:00 23 10 Nordeste 19 Nordeste 0 -- -- 71
2018-06-21 09:00:00 21.1 7 Nordeste 21 Nordeste 0 -- -- 76
2018-06-21 08:00:00 18.5 2 Oeste 19 Nordeste 0 -- -- 87
2018-06-21 07:00:00 17.6 12 Este 20 Nordeste 0 -- -- 91
2018-06-21 06:00:00 17.9 5 Nordeste 18 Sur 0.4 -- -- 88
2018-06-21 05:00:00 19.1 4 Sudeste 12 Sudoeste 0 -- -- 82
2018-06-21 04:00:00 19.8 2 Oeste 17 Sudoeste 0 -- -- 80
2018-06-21 03:00:00 19.4 4 Nordeste 21 Este 0 -- -- 79
2018-06-21 02:00:00 19.8 14 Este 21 Este 0 -- -- 78
2018-06-21 01:00:00 19.9 11 Este 19 Este 0 -- -- 74
2018-06-21 00:00:00 21.2 10 Este 20 Nordeste 0 -- -- 68
2018-06-20 23:00:00 21.5 11 Nordeste 17 Nordeste 0 -- -- 67
2018-06-20 22:00:00 23.7 7 Nordeste 24 Este 0 -- -- 66
2018-06-20 21:00:00 28 13 Este 23 Este 0 -- -- 51
2018-06-20 20:00:00 29.9 5 Nordeste 13 Este 0 -- -- 43
2018-06-20 19:00:00 31 6 Nordeste 16 Norte 0 -- -- 41
2018-06-20 18:00:00 30.9 5 Nordeste 15 Norte 0 -- -- 38
2018-06-20 17:00:00 31.2 3 Noroeste 14 Noroeste 0 -- -- 37
2018-06-20 16:00:00 30.9 8 Sudoeste 17 Oeste 0 -- -- 41
2018-06-20 15:00:00 30 9 Sur 15 Sur 0 -- -- 41
2018-06-20 14:00:00 29 5 Norte 13 Sudoeste 0 -- -- 46
2018-06-20 13:00:00 27.6 5 Noroeste 11 Oeste 0 -- -- 47
2018-06-20 12:00:00 26 3 Oeste 10 Oeste 0 -- -- 53
2018-06-20 11:00:00 23.7 2 Norte 8 Noroeste 0 -- -- 63
2018-06-20 10:00:00 21.1 2 Este 6 Este 0 -- -- 72
2018-06-20 09:00:00 17 4 Nordeste 7 Nordeste 0 -- -- 85
2018-06-20 08:00:00 12.9 0 Calma 2 Nordeste 0 -- -- 94
2018-06-20 07:00:00 11.1 0 Calma 2 Este 0 -- -- 93
2018-06-20 06:00:00 11.9 0 Calma 3 Noroeste 0 -- -- 91
2018-06-20 05:00:00 12.6 0 Calma 4 Noroeste 0 -- -- 90
2018-06-20 04:00:00 14.2 0 Calma 7 Este 0 -- -- 88
2018-06-20 03:00:00 15.2 4 Este 13 Nordeste 0 -- -- 89
2018-06-20 02:00:00 15.4 6 Este 12 Este 0 -- -- 88
2018-06-20 01:00:00 15.5 3 Nordeste 14 Norte 0 -- -- 86
2018-06-20 00:00:00 17 7 Nordeste 15 Nordeste 0 -- -- 82
2018-06-19 23:00:00 18.4 5 Nordeste 13 Nordeste 0 -- -- 76
2018-06-19 22:00:00 21.1 8 Nordeste 13 Nordeste 0 -- -- 68
2018-06-19 21:00:00 25.5 6 Nordeste 12 Nordeste 0 -- -- 59
2018-06-19 20:00:00 27.5 5 Este 11 Nordeste 0 -- -- 43
2018-06-19 19:00:00 27.6 4 Nordeste 12 Sudeste 0 -- -- 39
2018-06-19 18:00:00 27.5 5 Sudeste 14 Sudeste 0 -- -- 38
2018-06-19 17:00:00 26.8 9 Nordeste 21 Nordeste 0 -- -- 43
2018-06-19 16:00:00 25.5 10 Nordeste 21 Nordeste 0 -- -- 49
2018-06-19 15:00:00 24.3 9 Nordeste 19 Este 0 -- -- 51
2018-06-19 14:00:00 22.6 10 Nordeste 24 Norte 0 -- -- 54
2018-06-19 13:00:00 21.4 10 Este 27 Este 0 -- -- 55
2018-06-19 12:00:00 19.6 13 Nordeste 29 Este 0 -- -- 61
2018-06-19 11:00:00 17.9 17 Este 36 Este 0 -- -- 65
2018-06-19 10:00:00 16.5 17 Nordeste 35 Este 0 -- -- 72
2018-06-19 09:00:00 14 16 Nordeste 33 Nordeste 0 -- -- 79
2018-06-19 08:00:00 13.4 13 Nordeste 34 Nordeste 0 -- -- 81
2018-06-19 07:00:00 13.5 14 Nordeste 35 Nordeste 0 -- -- 82
2018-06-19 06:00:00 13.5 16 Nordeste 35 Este 0 -- -- 82
2018-06-19 05:00:00 13.7 18 Este 36 Este 0 -- -- 84
2018-06-19 04:00:00 13.9 18 Nordeste 37 Nordeste 0 -- -- 84
2018-06-19 03:00:00 14.2 18 Nordeste 35 Nordeste 0 -- -- 84
2018-06-19 02:00:00 13.1 13 Nordeste 25 Nordeste 0 -- -- 90
2018-06-19 01:00:00 12.9 13 Nordeste 22 Nordeste 0 -- -- 89
2018-06-19 00:00:00 13.5 6 Nordeste 15 Nordeste 0 -- -- 86
2018-06-18 23:00:00 14.9 9 Nordeste 23 Nordeste 0 -- -- 81
2018-06-18 22:00:00 16.7 16 Nordeste 36 Nordeste 0 -- -- 72
2018-06-18 21:00:00 19.3 19 Nordeste 35 Este 0 -- -- 64
2018-06-18 20:00:00 21.7 18 Nordeste 36 Nordeste 0 -- -- 58
2018-06-18 19:00:00 22.7 24 Nordeste 39 Nordeste 0 -- -- 56
2018-06-18 18:00:00 23.9 23 Nordeste 39 Nordeste 0 -- -- 56
2018-06-18 17:00:00 24.6 21 Nordeste 33 Nordeste 0 -- -- 53
2018-06-18 16:00:00 24.4 18 Nordeste 32 Nordeste 0 -- -- 55
2018-06-18 15:00:00 23.7 16 Nordeste 35 Nordeste 0 -- -- 55
2018-06-18 14:00:00 22.8 17 Nordeste 40 Nordeste 0 -- -- 57
2018-06-18 13:00:00 22.1 20 Nordeste 34 Nordeste 0 -- -- 52
2018-06-18 12:00:00 21.2 19 Nordeste 33 Nordeste 0 -- -- 54
2018-06-18 11:00:00 20.2 13 Nordeste 24 Nordeste 0 -- -- 51
2018-06-18 10:00:00 17.5 8 Nordeste 20 Nordeste 0 -- -- 60
2018-06-18 09:00:00 13.3 6 Nordeste 10 Nordeste 0 -- -- 78
2018-06-18 08:00:00 9.1 2 Sudoeste 7 Sudoeste 0 -- -- 89
2018-06-18 07:00:00 7.4 0 Calma 8 Nordeste 0 -- -- 90
2018-06-18 06:00:00 7.5 3 Este 7 Nordeste 0 -- -- 89
2018-06-18 05:00:00 8 6 Nordeste 9 Nordeste 0 -- -- 89
2018-06-18 04:00:00 8.7 3 Nordeste 7 Nordeste 0 -- -- 86
2018-06-18 03:00:00 9.6 2 Este 5 Norte 0 -- -- 84
2018-06-18 02:00:00 9.6 3 Nordeste 8 Nordeste 0 -- -- 85
2018-06-18 01:00:00 10.8 4 Nordeste 6 Nordeste 0 -- -- 78
2018-06-18 00:00:00 12.6 3 Nordeste 14 Nordeste 0 -- -- 72
2018-06-17 23:00:00 15.8 12 Este 18 Este 0 -- -- 52
2018-06-17 22:00:00 18.2 6 Este 12 Nordeste 0 -- -- 52
2018-06-17 21:00:00 21 8 Nordeste 22 Nordeste 0 -- -- 49
2018-06-17 20:00:00 22.8 15 Nordeste 26 Nordeste 0 -- -- 40
2018-06-17 19:00:00 24 15 Nordeste 28 Nordeste 0 -- -- 36
2018-06-17 18:00:00 24.4 15 Nordeste 25 Nordeste 0 -- -- 33
2018-06-17 17:00:00 24.5 13 Nordeste 24 Nordeste 0 -- -- 36
2018-06-17 16:00:00 24.1 14 Nordeste 27 Nordeste 0 -- -- 37
2018-06-17 15:00:00 23.1 15 Nordeste 27 Nordeste 0 -- -- 37
2018-06-17 14:00:00 22.1 14 Nordeste 25 Nordeste 0 -- -- 47
2018-06-17 13:00:00 20.4 10 Nordeste 32 Sudeste 0 -- -- 54
2018-06-17 12:00:00 18.7 16 Nordeste 27 Nordeste 0 -- -- 58
2018-06-17 11:00:00 16.9 15 Nordeste 28 Este 0 -- -- 67
2018-06-17 10:00:00 14.8 13 Nordeste 27 Este 0 -- -- 76
2018-06-17 09:00:00 13.1 9 Nordeste 17 Nordeste 0 -- -- 81
2018-06-17 08:00:00 10 8 Este 17 Este 0 -- -- 91
2018-06-17 07:00:00 8.7 2 Nordeste 14 Nordeste 0 -- -- 92
2018-06-17 06:00:00 9.1 7 Nordeste 17 Nordeste 0 -- -- 92
2018-06-17 05:00:00 9.4 8 Nordeste 17 Nordeste 0 -- -- 91
2018-06-17 04:00:00 10 9 Nordeste 15 Nordeste 0 -- -- 91
2018-06-17 03:00:00 10.8 7 Nordeste 14 Nordeste 0 -- -- 90
2018-06-17 02:00:00 11.3 6 Nordeste 30 Este 0 -- -- 87
2018-06-17 01:00:00 12.5 11 Este 24 Este 0 -- -- 81
2018-06-17 00:00:00 13.5 12 Este 23 Este 0 -- -- 78